createdAt,value
2023-11-07T14:31:00.308Z,10.60
2023-11-07T14:33:31.848Z,12.80
2023-11-07T14:36:01.551Z,14.10
2023-11-07T14:38:35.298Z,18.90
2023-11-07T14:41:08.878Z,13.50
2023-11-07T14:43:38.103Z,17.00
2023-11-07T14:46:07.004Z,14.40
2023-11-07T14:48:35.794Z,14.70
2023-11-07T14:51:04.578Z,16.50
2023-11-07T14:53:32.882Z,18.80
2023-11-07T14:56:01.046Z,14.60
2023-11-07T14:58:29.182Z,15.40
2023-11-07T15:00:58.066Z,19.90
2023-11-07T15:03:26.551Z,17.80
2023-11-07T15:05:55.581Z,16.00
2023-11-07T15:08:23.880Z,14.70
2023-11-07T15:10:52.075Z,16.60
2023-11-07T15:13:20.260Z,14.20
2023-11-07T15:15:49.314Z,16.30
2023-11-07T15:18:18.732Z,23.00
2023-11-07T15:20:49.253Z,13.70
2023-11-07T15:23:17.404Z,14.90
2023-11-07T15:25:46.010Z,14.90
2023-11-07T15:28:15.231Z,21.10
2023-11-07T15:30:43.604Z,18.60
2023-11-07T15:33:12.997Z,17.30
2023-11-07T15:35:42.973Z,23.10
2023-11-07T15:38:11.408Z,22.90
2023-11-07T15:40:40.996Z,25.10
2023-11-07T15:43:09.903Z,20.40
2023-11-07T15:45:38.573Z,19.60
2023-11-07T15:48:11.254Z,21.10
2023-11-07T15:53:10.283Z,23.30
2023-11-07T15:55:43.025Z,20.50
2023-11-07T15:58:11.972Z,24.30
2023-11-07T16:00:40.792Z,22.30
2023-11-07T16:03:09.693Z,27.40
2023-11-07T16:05:39.106Z,72.40
2023-11-07T16:08:08.812Z,69.90
2023-11-07T16:10:37.862Z,45.30
2023-11-07T16:13:06.789Z,40.40
2023-11-07T16:15:35.513Z,34.60
2023-11-07T16:18:06.253Z,32.80
2023-11-07T16:20:34.779Z,37.00
2023-11-07T16:23:04.384Z,31.80
2023-11-07T16:25:33.067Z,29.70
2023-11-07T16:28:03.977Z,34.00
2023-11-07T16:30:33.923Z,33.80
2023-11-07T16:33:02.440Z,44.70
2023-11-07T16:35:30.711Z,46.70
2023-11-07T16:37:58.947Z,40.40
2023-11-07T16:40:27.167Z,39.50
2023-11-07T16:42:55.701Z,41.60
2023-11-07T16:45:24.742Z,43.10
2023-11-07T16:47:53.042Z,46.50
2023-11-07T16:50:21.925Z,39.30
2023-11-07T16:52:50.610Z,43.80
2023-11-07T16:55:18.761Z,44.30
2023-11-07T16:57:46.998Z,43.90
2023-11-07T17:00:19.319Z,49.20
2023-11-07T17:02:49.045Z,50.70
2023-11-07T17:05:19.174Z,42.00
2023-11-07T17:07:48.125Z,41.10
2023-11-07T17:10:16.794Z,42.90
2023-11-07T17:12:45.173Z,41.70
2023-11-07T17:15:14.023Z,38.70
2023-11-07T17:17:45.682Z,37.30
2023-11-07T17:20:14.251Z,36.90
2023-11-07T17:22:42.786Z,31.80
2023-11-07T17:25:11.127Z,35.20
2023-11-07T17:27:40.896Z,36.50
2023-11-07T17:30:09.483Z,34.20
2023-11-07T17:32:39.126Z,32.20
2023-11-07T17:35:08.433Z,34.80
2023-11-07T17:37:44.614Z,35.10
2023-11-07T17:40:13.123Z,35.10
2023-11-07T17:42:41.601Z,31.10
2023-11-07T17:45:11.092Z,32.80
2023-11-07T17:47:39.891Z,36.60
2023-11-07T17:50:09.696Z,62.40
2023-11-07T17:52:38.268Z,60.10
2023-11-07T17:55:07.429Z,49.80
2023-11-07T17:57:36.599Z,41.80
2023-11-07T18:00:06.090Z,39.50
2023-11-07T18:02:40.941Z,40.30
2023-11-07T18:05:11.388Z,39.90
2023-11-07T18:07:40.273Z,42.70
2023-11-07T18:10:12.134Z,44.60
2023-11-07T18:12:40.507Z,45.00
2023-11-07T18:15:09.533Z,39.30
2023-11-07T18:17:38.114Z,42.40
2023-11-07T18:20:09.492Z,39.80
2023-11-07T18:22:39.987Z,44.70
2023-11-07T18:25:09.775Z,41.40
2023-11-07T18:27:39.367Z,45.70
2023-11-07T18:30:08.847Z,47.60
2023-11-07T18:32:37.127Z,49.20
2023-11-07T18:35:05.887Z,45.80
2023-11-07T18:37:34.735Z,47.70
2023-11-07T18:40:03.775Z,47.10
2023-11-07T18:42:32.015Z,53.10
2023-11-07T18:45:01.180Z,50.80
2023-11-07T18:47:29.426Z,56.50
2023-11-07T18:50:00.538Z,52.00
2023-11-07T18:52:32.286Z,53.70
2023-11-07T18:55:01.121Z,51.00
2023-11-07T18:57:29.362Z,51.40
2023-11-07T18:59:57.601Z,57.10
2023-11-07T19:02:25.953Z,47.10
2023-11-07T19:04:54.848Z,49.10
2023-11-07T19:07:23.209Z,56.50
2023-11-07T19:09:52.063Z,54.60
2023-11-07T19:12:20.503Z,54.80
2023-11-07T19:14:49.439Z,54.30
2023-11-07T19:17:17.704Z,59.30
2023-11-07T19:19:46.021Z,51.70
2023-11-07T19:22:14.195Z,50.20
2023-11-07T19:24:42.423Z,45.90
2023-11-07T19:27:12.032Z,55.20
2023-11-07T19:29:40.293Z,47.80
2023-11-07T19:32:08.746Z,53.80
2023-11-07T19:34:37.006Z,45.80
2023-11-07T19:37:06.203Z,49.60
2023-11-07T19:39:35.823Z,53.80
2023-11-07T19:42:05.211Z,59.40
2023-11-07T19:44:37.280Z,67.50
2023-11-07T19:47:06.414Z,73.30
2023-11-07T19:49:34.819Z,72.80
2023-11-07T19:52:03.934Z,84.60
2023-11-07T19:54:32.961Z,80.30
2023-11-07T19:57:01.612Z,73.80
2023-11-07T19:59:29.866Z,74.70
2023-11-07T20:01:59.038Z,76.40
2023-11-07T20:04:27.305Z,84.00
2023-11-07T20:06:55.629Z,80.10
2023-11-07T20:09:23.847Z,73.20
2023-11-07T20:11:52.000Z,63.30
2023-11-07T20:14:20.281Z,64.90
2023-11-07T20:16:48.519Z,64.70
2023-11-07T20:19:16.939Z,61.70
2023-11-07T20:21:45.734Z,56.00
2023-11-07T20:24:14.182Z,53.90
2023-11-07T20:26:42.432Z,57.30
2023-11-07T20:29:10.586Z,51.50
2023-11-07T20:31:38.751Z,56.90
2023-11-07T20:34:07.055Z,56.90
2023-11-07T20:36:35.623Z,56.30
2023-11-07T20:39:06.708Z,73.10
2023-11-07T20:41:37.531Z,64.60
2023-11-07T20:44:07.621Z,59.40
2023-11-07T20:46:36.726Z,61.80
2023-11-07T20:49:06.729Z,64.30
2023-11-07T20:51:36.568Z,70.70
2023-11-07T20:54:05.593Z,68.70
2023-11-07T20:56:34.698Z,71.60
2023-11-07T20:59:04.348Z,69.80
2023-11-07T21:01:33.580Z,68.00
2023-11-07T21:04:02.645Z,61.50
2023-11-07T21:06:31.061Z,61.40
2023-11-07T21:08:59.966Z,57.80
2023-11-07T21:11:28.223Z,56.70
2023-11-07T21:13:57.129Z,47.70
2023-11-07T21:16:25.368Z,48.40
2023-11-07T21:18:55.758Z,50.50
2023-11-07T21:21:24.328Z,65.50
2023-11-07T21:23:53.352Z,69.90
2023-11-07T21:26:24.518Z,66.30
2023-11-07T21:28:53.694Z,63.20
2023-11-07T21:31:22.150Z,55.60
2023-11-07T21:33:51.139Z,51.70
2023-11-07T21:36:19.617Z,51.50
2023-11-07T21:38:48.595Z,48.00
2023-11-07T21:41:16.806Z,43.20
2023-11-07T21:43:46.748Z,38.80
2023-11-07T21:46:15.653Z,36.60
2023-11-07T21:48:46.647Z,38.80
2023-11-07T21:51:15.896Z,38.20
2023-11-07T21:53:44.076Z,36.00
2023-11-07T21:56:14.410Z,42.00
2023-11-07T21:58:43.155Z,43.50
2023-11-07T22:01:12.191Z,40.70
2023-11-07T22:03:40.402Z,39.40
2023-11-07T22:06:08.629Z,40.00
2023-11-07T22:08:36.873Z,36.70
2023-11-07T22:11:07.546Z,37.50
2023-11-07T22:13:39.330Z,38.20
2023-11-07T22:16:07.545Z,43.70
2023-11-07T22:18:35.901Z,44.60
2023-11-07T22:21:05.035Z,51.60
2023-11-07T22:23:34.418Z,46.70
2023-11-07T22:26:02.600Z,41.60
2023-11-07T22:28:30.817Z,45.80
2023-11-07T22:31:00.332Z,46.80
2023-11-07T22:33:28.789Z,47.50
2023-11-07T22:35:56.980Z,51.40
2023-11-07T22:38:27.533Z,54.80
2023-11-07T22:40:56.232Z,46.60
2023-11-07T22:43:24.411Z,43.30
2023-11-07T22:45:52.532Z,47.40
2023-11-07T22:48:22.008Z,50.30
2023-11-07T22:50:50.479Z,52.80
2023-11-07T22:53:19.843Z,53.30
2023-11-07T22:55:48.668Z,56.20
2023-11-07T22:58:16.826Z,54.40
2023-11-07T23:00:49.657Z,55.80
2023-11-07T23:03:17.924Z,57.50
2023-11-07T23:05:46.370Z,60.40
2023-11-07T23:08:14.801Z,56.20
2023-11-07T23:10:43.769Z,56.90
2023-11-07T23:13:12.184Z,57.20
2023-11-07T23:15:40.475Z,53.70
2023-11-07T23:18:09.411Z,54.40
2023-11-07T23:20:41.580Z,55.50
2023-11-07T23:23:10.755Z,64.20
2023-11-07T23:25:42.494Z,64.80
2023-11-07T23:28:11.961Z,58.40
2023-11-07T23:30:40.240Z,59.80
2023-11-07T23:33:08.637Z,55.10
2023-11-07T23:35:36.986Z,60.40
2023-11-07T23:38:05.202Z,56.40
2023-11-07T23:40:36.985Z,56.00
2023-11-07T23:43:05.241Z,50.30
2023-11-07T23:45:33.811Z,50.20
2023-11-07T23:48:02.425Z,55.10
2023-11-07T23:50:30.633Z,47.70
2023-11-07T23:52:58.750Z,51.30
2023-11-07T23:55:26.976Z,55.30
2023-11-07T23:57:55.625Z,57.60
